Time;durP1;ratioP1;P1;durP2;ratioP2;P2;SDS_P1;SDS_P2;PMS_P1;PMS_P2;Temp;Humidity;BMP_temperature;BMP_pressure;BME280_temperature;BME280_humidity;BME280_pressure;Samples;Min_cycle;Max_cycle;Signal;HPM_P1;HPM_P2
2023/05/21 00:00:43;;;;;;;28.50;26.60;;;17.40;99.90;;;;;;5010924;28;20464;-76
2023/05/21 00:03:12;;;;;;;29.90;27.80;;;17.40;99.90;;;;;;5011106;28;20450;-76
2023/05/21 00:05:39;;;;;;;29.53;27.13;;;17.40;99.90;;;;;;5011000;28;20906;-76
2023/05/21 00:08:06;;;;;;;29.20;27.07;;;17.30;99.90;;;;;;5010809;28;20481;-77
2023/05/21 00:10:32;;;;;;;30.07;28.10;;;17.20;99.90;;;;;;5010805;28;20453;-78
2023/05/21 00:12:59;;;;;;;31.17;28.70;;;17.30;99.90;;;;;;5010872;28;20971;-78
2023/05/21 00:15:26;;;;;;;27.77;25.97;;;17.20;99.90;;;;;;5010925;28;20489;-78
2023/05/21 00:17:54;;;;;;;30.90;28.80;;;17.30;99.90;;;;;;5010680;28;20457;-78
2023/05/21 00:20:22;;;;;;;28.93;26.90;;;17.20;99.90;;;;;;5010405;28;20454;-79
2023/05/21 00:22:48;;;;;;;29.97;27.90;;;17.20;99.90;;;;;;5010216;28;20464;-78
2023/05/21 00:25:15;;;;;;;29.00;26.90;;;17.10;99.90;;;;;;5010298;28;20954;-78
2023/05/21 00:27:42;;;;;;;29.53;27.23;;;17.10;99.90;;;;;;5010352;28;20775;-78
2023/05/21 00:30:09;;;;;;;29.47;27.37;;;17.10;99.90;;;;;;5010430;28;20450;-78
2023/05/21 00:32:36;;;;;;;30.40;28.00;;;17.10;99.90;;;;;;5010575;28;20450;-78
2023/05/21 00:35:05;;;;;;;30.47;28.37;;;17.10;99.90;;;;;;5010084;28;20877;-79
2023/05/21 00:37:32;;;;;;;31.27;29.07;;;17.10;99.90;;;;;;5009930;28;20846;-79
2023/05/21 00:39:59;;;;;;;29.07;27.17;;;17.00;99.90;;;;;;5009815;28;20888;-78
2023/05/21 00:42:26;;;;;;;30.17;27.87;;;17.10;99.90;;;;;;5010255;28;20939;-79
2023/05/21 00:44:53;;;;;;;30.40;28.40;;;17.00;99.90;;;;;;5010376;28;20441;-78
2023/05/21 00:47:21;;;;;;;30.30;28.20;;;17.00;99.90;;;;;;5009954;28;20497;-77
2023/05/21 00:49:50;;;;;;;30.23;28.03;;;17.00;99.90;;;;;;5009875;28;20837;-78
2023/05/21 00:52:19;;;;;;;30.20;28.00;;;17.00;99.90;;;;;;5010003;28;20450;-78
2023/05/21 00:54:46;;;;;;;30.50;28.20;;;17.00;99.90;;;;;;5009842;28;20608;-78
2023/05/21 00:57:13;;;;;;;31.37;29.17;;;16.90;99.90;;;;;;5009905;28;20462;-78
2023/05/21 00:59:41;;;;;;;29.60;27.43;;;17.00;99.90;;;;;;5010062;28;20445;-78
2023/05/21 01:02:08;;;;;;;32.60;30.20;;;17.00;99.90;;;;;;5010027;28;20958;-77
2023/05/21 01:04:35;;;;;;;29.37;27.37;;;17.00;99.90;;;;;;5009588;28;20568;-77
2023/05/21 01:07:02;;;;;;;29.73;27.63;;;17.00;99.90;;;;;;5009452;28;20567;-78
2023/05/21 01:09:30;;;;;;;31.00;28.80;;;17.00;99.90;;;;;;5009616;28;20492;-78
2023/05/21 01:11:59;;;;;;;30.10;28.00;;;16.90;99.90;;;;;;5009506;28;20914;-78
2023/05/21 01:14:26;;;;;;;29.77;27.73;;;16.90;99.90;;;;;;5009549;28;20454;-78
2023/05/21 01:16:53;;;;;;;30.97;28.77;;;16.90;99.90;;;;;;5009628;28;20454;-77
2023/05/21 01:19:22;;;;;;;32.37;29.97;;;16.90;99.90;;;;;;5009339;28;20456;-77
2023/05/21 01:21:52;;;;;;;32.13;29.77;;;16.90;99.90;;;;;;5009252;28;20457;-79
2023/05/21 01:24:20;;;;;;;30.80;28.60;;;16.90;99.90;;;;;;5009374;28;20485;-78
2023/05/21 01:26:48;;;;;;;31.60;29.40;;;16.80;99.90;;;;;;5009334;28;20453;-76
2023/05/21 03:44:12;;;;;;;38.90;36.00;;;15.50;99.90;;;;;;6134297;22;20540;-72
2023/05/21 03:46:38;;;;;;;39.13;36.10;;;15.50;99.90;;;;;;5028617;28;20488;-74
2023/05/21 03:49:05;;;;;;;39.27;36.17;;;15.50;99.90;;;;;;5030340;28;20445;-74
2023/05/21 03:51:32;;;;;;;40.37;37.03;;;15.50;99.90;;;;;;5030475;28;20818;-74
2023/05/21 03:54:00;;;;;;;38.50;35.10;;;15.50;99.90;;;;;;5030818;28;20449;-75
2023/05/21 03:56:26;;;;;;;38.80;35.60;;;15.40;99.90;;;;;;5030272;28;20523;-74
2023/05/21 03:58:53;;;;;;;39.00;35.90;;;15.40;99.90;;;;;;5030211;28;20460;-75
2023/05/21 04:01:21;;;;;;;39.07;35.93;;;15.50;99.90;;;;;;5030040;28;20491;-74
2023/05/21 04:03:48;;;;;;;38.80;35.97;;;15.50;99.90;;;;;;5030173;28;20531;-74
2023/05/21 04:06:15;;;;;;;36.87;33.97;;;15.50;99.90;;;;;;5030409;28;20452;-75
2023/05/21 04:08:43;;;;;;;38.73;35.63;;;15.50;99.90;;;;;;5030228;28;20923;-74
2023/05/21 04:11:10;;;;;;;38.37;35.20;;;15.50;99.90;;;;;;5029979;28;20551;-74
2023/05/21 04:13:36;;;;;;;39.37;36.37;;;15.50;99.90;;;;;;5029734;28;20915;-74
2023/05/21 04:16:03;;;;;;;39.93;36.73;;;15.50;99.90;;;;;;5029714;28;20497;-74
2023/05/21 04:18:33;;;;;;;38.50;35.30;;;15.50;99.90;;;;;;5030191;28;20449;-75
2023/05/21 04:21:00;;;;;;;37.50;34.60;;;15.50;99.90;;;;;;5030198;28;20465;-75
2023/05/21 04:23:27;;;;;;;40.17;36.83;;;15.60;99.90;;;;;;5029994;28;20461;-75
2023/05/21 04:25:54;;;;;;;39.40;36.30;;;15.60;99.90;;;;;;5029825;28;20453;-74
2023/05/21 04:28:22;;;;;;;38.47;35.23;;;15.70;99.90;;;;;;5029849;28;21088;-74
2023/05/21 04:30:49;;;;;;;39.33;36.10;;;15.80;99.90;;;;;;5029393;28;20547;-74
2023/05/21 04:33:16;;;;;;;40.67;36.87;;;15.90;99.90;;;;;;5029620;28;20507;-76
2023/05/21 04:35:48;;;;;;;39.50;35.90;;;15.90;99.90;;;;;;5029937;28;20492;-76
2023/05/21 04:38:18;;;;;;;40.67;37.30;;;16.00;99.90;;;;;;5030150;28;20453;-75
2023/05/21 04:40:45;;;;;;;39.40;36.50;;;16.00;99.90;;;;;;5029847;28;20483;-75
2023/05/21 04:43:11;;;;;;;39.20;35.87;;;16.00;99.90;;;;;;5033667;28;20472;-75
2023/05/21 04:45:38;;;;;;;36.63;33.87;;;16.10;99.90;;;;;;5049190;28;20476;-75
2023/05/21 04:48:06;;;;;;;37.70;34.57;;;16.20;99.90;;;;;;5049630;28;20559;-75
2023/05/21 04:50:33;;;;;;;37.57;34.47;;;16.30;99.90;;;;;;5049548;28;20564;-75
2023/05/21 04:53:02;;;;;;;38.13;35.17;;;16.40;99.90;;;;;;5049887;28;20913;-75
2023/05/21 04:55:28;;;;;;;36.77;34.07;;;16.40;99.90;;;;;;5049874;28;20484;-75
2023/05/21 04:57:56;;;;;;;36.10;33.27;;;16.50;99.90;;;;;;5049699;28;20466;-74
2023/05/21 05:00:24;;;;;;;36.07;33.20;;;16.50;99.90;;;;;;5049389;28;20491;-75
2023/05/21 05:02:51;;;;;;;35.20;32.20;;;16.60;99.90;;;;;;5049486;28;20452;-75
2023/05/21 05:05:18;;;;;;;33.73;31.23;;;16.70;99.90;;;;;;5049189;28;20452;-77
2023/05/21 05:07:45;;;;;;;35.90;33.10;;;16.80;99.90;;;;;;5049558;28;20444;-77
2023/05/21 05:10:13;;;;;;;35.90;33.20;;;16.90;99.90;;;;;;5051394;28;20937;-77
2023/05/21 05:12:39;;;;;;;36.33;33.47;;;16.90;99.90;;;;;;5049756;28;20452;-76
2023/05/21 05:15:07;;;;;;;36.00;33.07;;;17.00;99.90;;;;;;5048827;28;20550;-75
2023/05/21 05:17:34;;;;;;;35.67;33.07;;;17.10;99.90;;;;;;5049225;28;20470;-73
2023/05/21 05:20:01;;;;;;;36.77;34.03;;;17.30;99.90;;;;;;5049115;28;20452;-75
2023/05/21 05:22:28;;;;;;;35.60;32.73;;;17.40;99.90;;;;;;5049394;28;20922;-74
2023/05/21 05:24:54;;;;;;;33.83;31.40;;;17.40;99.90;;;;;;5049008;28;20455;-75
2023/05/21 05:27:22;;;;;;;35.97;33.20;;;17.50;99.90;;;;;;5049761;28;20553;-74
2023/05/21 05:29:49;;;;;;;34.43;31.70;;;17.40;99.90;;;;;;5048747;28;20456;-74
2023/05/21 05:32:15;;;;;;;32.40;30.00;;;17.50;99.90;;;;;;5049244;28;20459;-74
2023/05/21 05:34:43;;;;;;;34.63;31.87;;;17.70;99.90;;;;;;5049708;28;20948;-75
2023/05/21 05:37:09;;;;;;;32.73;30.23;;;17.60;99.90;;;;;;5049249;28;20502;-75
2023/05/21 05:39:36;;;;;;;34.10;31.60;;;17.70;99.90;;;;;;5049260;28;20491;-74
2023/05/21 05:42:03;;;;;;;32.27;29.87;;;17.60;99.90;;;;;;5049102;28;20463;-75
2023/05/21 05:44:31;;;;;;;35.23;32.50;;;17.60;99.90;;;;;;5048902;28;20988;-76
2023/05/21 05:46:57;;;;;;;32.13;29.57;;;17.80;99.90;;;;;;5049458;28;20440;-76
2023/05/21 05:49:24;;;;;;;30.07;27.50;;;18.00;99.90;;;;;;5049342;28;20448;-76
2023/05/21 05:51:51;;;;;;;31.93;29.43;;;18.10;99.90;;;;;;5049066;28;20964;-75
2023/05/21 05:54:18;;;;;;;32.37;29.57;;;18.30;99.90;;;;;;5048931;28;20448;-75
2023/05/21 05:56:44;;;;;;;30.90;28.53;;;18.50;99.90;;;;;;5049216;28;20491;-74
2023/05/21 05:59:11;;;;;;;29.77;27.50;;;18.80;99.90;;;;;;5049120;28;20470;-74
2023/05/21 06:01:41;;;;;;;30.63;28.30;;;18.90;99.90;;;;;;5048918;28;20452;-74
2023/05/21 06:04:07;;;;;;;28.60;26.40;;;19.30;99.90;;;;;;5049084;28;20456;-74
2023/05/21 06:06:35;;;;;;;28.00;25.90;;;19.70;99.90;;;;;;5048712;28;20941;-75
2023/05/21 06:09:02;;;;;;;30.00;27.70;;;19.90;99.90;;;;;;5049057;28;20456;-75
2023/05/21 06:11:28;;;;;;;29.30;27.00;;;20.10;99.90;;;;;;5049030;28;20929;-75
2023/05/21 06:13:55;;;;;;;29.67;27.30;;;20.20;99.90;;;;;;5048761;28;20444;-75
2023/05/21 06:16:22;;;;;;;28.00;26.03;;;20.50;99.90;;;;;;5048658;28;20696;-75
2023/05/21 06:18:50;;;;;;;29.43;27.23;;;21.20;99.90;;;;;;5048859;28;20459;-75
2023/05/21 06:21:17;;;;;;;28.83;26.70;;;21.30;99.90;;;;;;5048970;28;20444;-76
2023/05/21 06:23:43;;;;;;;28.70;26.60;;;21.40;99.90;;;;;;5051571;28;20491;-77
2023/05/21 06:26:10;;;;;;;28.97;26.53;;;21.80;99.90;;;;;;5048998;28;20448;-78
2023/05/21 06:28:36;;;;;;;26.80;24.90;;;22.20;99.90;;;;;;5048618;28;20464;-77
2023/05/21 06:31:03;;;;;;;26.97;25.10;;;22.50;99.90;;;;;;5048673;28;20455;-77
2023/05/21 06:33:30;;;;;;;28.40;26.50;;;22.80;99.90;;;;;;5048645;28;20462;-78
2023/05/21 06:35:58;;;;;;;28.17;26.27;;;22.80;99.90;;;;;;5048914;28;20538;-74
2023/05/21 06:38:25;;;;;;;28.40;26.40;;;22.90;99.90;;;;;;5052589;28;20456;-74
2023/05/21 06:40:52;;;;;;;26.90;25.07;;;22.90;99.90;;;;;;5048665;28;20483;-76
2023/05/21 06:43:18;;;;;;;28.43;26.27;;;23.00;99.90;;;;;;5052103;28;20472;-79
2023/05/21 06:45:45;;;;;;;27.53;25.73;;;23.10;99.90;;;;;;5051994;28;20479;-76
2023/05/21 06:48:14;;;;;;;25.80;24.03;;;23.00;99.90;;;;;;5052192;28;20459;-78
2023/05/21 06:50:41;;;;;;;26.10;24.40;;;23.10;99.90;;;;;;5052347;28;20555;-77
2023/05/21 06:53:09;;;;;;;28.40;26.40;;;23.50;99.90;;;;;;5051925;28;20452;-77
2023/05/21 06:55:36;;;;;;;27.67;25.57;;;23.30;99.90;;;;;;5051836;28;20720;-77
2023/05/21 06:58:02;;;;;;;28.13;26.23;;;22.90;99.90;;;;;;5051899;28;20456;-77
2023/05/21 07:00:29;;;;;;;29.73;27.50;;;22.70;99.90;;;;;;5052114;28;20440;-77
2023/05/21 07:02:56;;;;;;;26.33;24.60;;;23.30;99.90;;;;;;5052097;28;20530;-76
2023/05/21 07:05:22;;;;;;;28.07;25.97;;;23.40;99.90;;;;;;5051972;28;20451;-79
2023/05/21 07:07:49;;;;;;;27.10;25.27;;;23.40;99.90;;;;;;5051672;28;20464;-79
2023/05/21 07:10:18;;;;;;;25.93;24.17;;;23.60;99.90;;;;;;5051607;28;20967;-80
2023/05/21 07:12:44;;;;;;;27.07;24.97;;;23.60;99.90;;;;;;5051880;28;20461;-80
2023/05/21 07:15:11;;;;;;;26.73;24.80;;;23.70;99.90;;;;;;5051600;28;20449;-81
2023/05/21 07:17:38;;;;;;;26.87;25.07;;;23.90;99.90;;;;;;5051196;28;20490;-81
2023/05/21 07:20:06;;;;;;;26.27;24.60;;;24.00;99.90;;;;;;5051342;28;20996;-81
2023/05/21 07:22:33;;;;;;;26.73;24.83;;;24.40;99.90;;;;;;5051559;28;20555;-80
2023/05/21 07:25:00;;;;;;;23.50;22.10;;;25.00;99.20;;;;;;5051571;28;20448;-80
2023/05/21 07:27:28;;;;;;;26.60;24.80;;;25.10;98.70;;;;;;5051466;28;20880;-73
2023/05/21 07:29:54;;;;;;;25.03;23.40;;;25.20;98.20;;;;;;5051169;28;20784;-74
2023/05/21 07:32:21;;;;;;;26.43;24.63;;;25.20;98.20;;;;;;5045290;28;20512;-73
2023/05/21 07:34:48;;;;;;;26.97;25.17;;;25.70;97.30;;;;;;5050460;28;20456;-74
2023/05/21 07:37:15;;;;;;;26.37;24.77;;;25.70;97.00;;;;;;5050982;28;20913;-74
2023/05/21 07:39:41;;;;;;;25.13;23.43;;;25.10;97.60;;;;;;5051098;28;21063;-76
2023/05/21 07:42:08;;;;;;;27.40;25.17;;;25.60;97.20;;;;;;5050523;28;20457;-74
2023/05/21 07:44:36;;;;;;;25.50;23.77;;;26.60;95.70;;;;;;5050449;28;20514;-74
2023/05/21 07:47:03;;;;;;;25.53;23.93;;;27.20;94.00;;;;;;5050873;28;20543;-75
2023/05/21 07:49:30;;;;;;;25.03;23.23;;;27.90;92.30;;;;;;5051352;28;20459;-75
2023/05/21 07:51:56;;;;;;;23.90;22.27;;;28.20;91.90;;;;;;5051118;28;20800;-75
2023/05/21 07:54:23;;;;;;;24.80;23.30;;;29.10;90.10;;;;;;5050701;28;20463;-75
2023/05/21 07:56:50;;;;;;;26.90;25.20;;;29.50;88.40;;;;;;5050892;28;20479;-75
2023/05/21 07:59:16;;;;;;;25.80;24.20;;;29.90;86.10;;;;;;5050847;28;20933;-76
2023/05/21 08:01:45;;;;;;;23.80;22.40;;;30.40;82.90;;;;;;5051341;28;20506;-76
2023/05/21 08:04:12;;;;;;;26.13;24.40;;;30.40;83.20;;;;;;5051071;28;20510;-76
2023/05/21 08:06:39;;;;;;;27.13;25.07;;;29.50;84.90;;;;;;5050728;28;20778;-76
2023/05/21 08:09:05;;;;;;;24.60;23.13;;;29.70;84.90;;;;;;5050411;28;20452;-76
2023/05/21 08:11:33;;;;;;;24.60;23.17;;;29.00;86.20;;;;;;5050035;28;20456;-76
2023/05/21 08:13:59;;;;;;;25.93;24.40;;;28.80;87.20;;;;;;5050418;28;20455;-77
2023/05/21 08:16:26;;;;;;;23.53;22.13;;;29.50;85.70;;;;;;5050213;28;20530;-77
2023/05/21 08:18:54;;;;;;;26.23;24.63;;;29.90;84.50;;;;;;5050169;28;20441;-77
2023/05/21 08:21:23;;;;;;;26.10;24.40;;;29.90;83.60;;;;;;5049973;28;20448;-77
2023/05/21 08:23:51;;;;;;;24.50;23.20;;;30.40;82.70;;;;;;5049672;28;20452;-78
2023/05/21 08:26:18;;;;;;;22.83;21.43;;;29.90;83.00;;;;;;5049697;28;20464;-77
2023/05/21 08:28:45;;;;;;;24.07;22.60;;;29.40;83.20;;;;;;5049974;28;20448;-78
2023/05/21 08:31:12;;;;;;;24.00;22.50;;;29.40;82.80;;;;;;5050106;28;20455;-78
2023/05/21 08:33:38;;;;;;;22.80;21.40;;;29.90;80.40;;;;;;5044382;28;20491;-78
2023/05/21 08:36:07;;;;;;;21.77;20.57;;;30.30;78.50;;;;;;5049379;28;20676;-78
2023/05/21 08:38:35;;;;;;;21.93;20.73;;;30.90;77.40;;;;;;5050003;28;20455;-78
2023/05/21 08:41:04;;;;;;;21.87;20.47;;;30.70;77.10;;;;;;5050118;28;20466;-77
2023/05/21 08:43:30;;;;;;;21.43;20.20;;;29.60;77.70;;;;;;5049840;28;20993;-77
2023/05/21 08:46:00;;;;;;;21.30;20.00;;;29.60;78.60;;;;;;5049762;28;20479;-77
2023/05/21 08:48:28;;;;;;;23.37;21.97;;;29.10;79.30;;;;;;5049653;28;20966;-77
2023/05/21 08:50:55;;;;;;;24.20;22.60;;;28.30;81.30;;;;;;5049805;28;20453;-77
2023/05/21 08:53:23;;;;;;;23.37;21.97;;;28.40;81.90;;;;;;5049584;28;20451;-77
2023/05/21 08:55:52;;;;;;;20.70;19.50;;;28.80;81.90;;;;;;5049619;28;20456;-77
2023/05/21 08:58:20;;;;;;;22.47;21.10;;;29.70;78.30;;;;;;5048647;28;20491;-77
2023/05/21 09:00:46;;;;;;;20.87;19.77;;;28.90;79.70;;;;;;5048605;28;20476;-77
2023/05/21 09:03:15;;;;;;;21.10;19.83;;;29.30;79.60;;;;;;5049119;28;20436;-77
2023/05/21 09:05:42;;;;;;;21.10;19.90;;;29.20;77.20;;;;;;5048964;28;20448;-77
2023/05/21 09:08:14;;;;;;;20.97;19.77;;;28.80;78.40;;;;;;5048871;28;20463;-77
2023/05/21 09:10:47;;;;;;;20.97;19.80;;;28.30;79.20;;;;;;5048876;28;20447;-77
2023/05/21 09:13:16;;;;;;;22.17;20.80;;;27.70;81.30;;;;;;5046809;28;20440;-77
2023/05/21 09:15:44;;;;;;;21.17;20.07;;;27.50;81.80;;;;;;5049366;28;20449;-77
2023/05/21 09:18:11;;;;;;;21.40;20.00;;;27.10;82.50;;;;;;5046136;28;20480;-77
2023/05/21 09:20:38;;;;;;;19.57;18.47;;;26.80;83.60;;;;;;5048900;28;20483;-76
2023/05/21 09:23:11;;;;;;;21.27;19.93;;;26.50;83.60;;;;;;5048531;28;20451;-76
2023/05/21 09:25:38;;;;;;;22.03;20.73;;;26.50;85.10;;;;;;5046962;28;20536;-76
2023/05/21 09:28:11;;;;;;;21.23;20.00;;;26.50;84.50;;;;;;5048390;28;20468;-76
2023/05/21 09:30:44;;;;;;;20.73;19.63;;;26.80;83.80;;;;;;5048421;28;20455;-76
2023/05/21 09:33:11;;;;;;;21.30;20.10;;;27.10;83.50;;;;;;5040119;28;20464;-76
2023/05/21 09:35:44;;;;;;;20.77;19.60;;;27.50;82.60;;;;;;5048374;28;20495;-76
2023/05/21 09:38:10;;;;;;;18.83;17.90;;;28.10;81.00;;;;;;5045659;28;20862;-76
2023/05/21 09:40:43;;;;;;;20.80;19.60;;;28.80;79.60;;;;;;5048533;28;20451;-76
2023/05/21 09:43:13;;;;;;;19.87;18.60;;;29.20;78.10;;;;;;5048218;28;20460;-77
2023/05/21 09:45:50;;;;;;;20.97;19.83;;;29.30;77.20;;;;;;5048188;28;20977;-77
2023/05/21 09:48:17;;;;;;;20.20;19.10;;;29.70;76.00;;;;;;5047002;28;20480;-76
2023/05/21 09:50:44;;;;;;;21.80;20.60;;;29.90;76.50;;;;;;5048873;28;20440;-77
2023/05/21 09:53:12;;;;;;;21.17;19.97;;;31.10;72.70;;;;;;5045932;28;20506;-77
2023/05/21 09:55:40;;;;;;;21.53;20.33;;;30.90;70.60;;;;;;5048847;28;20440;-77
2023/05/21 09:58:07;;;;;;;20.97;19.87;;;30.90;71.00;;;;;;5048386;28;20476;-78
2023/05/21 10:00:35;;;;;;;21.27;20.17;;;30.90;71.40;;;;;;5048332;28;20497;-77
2023/05/21 10:03:09;;;;;;;21.73;20.53;;;31.50;70.00;;;;;;5048205;28;20453;-76
2023/05/21 10:05:37;;;;;;;21.40;20.30;;;32.50;69.30;;;;;;5046098;28;20428;-78
2023/05/21 10:08:04;;;;;;;21.90;20.80;;;32.50;66.80;;;;;;5048381;28;20439;-78
2023/05/21 10:10:32;;;;;;;20.93;19.83;;;33.50;64.90;;;;;;5048937;28;20444;-77
2023/05/21 10:13:00;;;;;;;22.27;21.07;;;33.60;65.30;;;;;;5052658;28;20502;-78
2023/05/21 10:15:31;;;;;;;22.63;21.30;;;32.30;65.80;;;;;;5053130;28;20814;-80
2023/05/21 10:18:00;;;;;;;22.93;21.73;;;32.20;66.80;;;;;;5052998;28;20487;-78
2023/05/21 10:20:27;;;;;;;21.90;20.70;;;32.40;64.20;;;;;;5053271;28;20452;-79
2023/05/21 10:22:55;;;;;;;21.47;20.37;;;32.60;65.90;;;;;;5053182;28;20447;-79
2023/05/21 10:25:23;;;;;;;22.00;20.80;;;32.60;65.60;;;;;;5052746;28;20699;-79
2023/05/21 10:27:50;;;;;;;22.53;21.30;;;32.20;66.00;;;;;;5052849;28;20444;-79
2023/05/21 10:30:18;;;;;;;22.60;21.40;;;32.20;65.00;;;;;;5052908;28;20459;-79
2023/05/21 10:32:47;;;;;;;21.83;20.53;;;31.20;66.50;;;;;;5052473;28;20452;-78
2023/05/21 10:35:16;;;;;;;23.30;21.80;;;30.60;67.50;;;;;;5052131;28;20448;-78
2023/05/21 10:37:44;;;;;;;21.70;20.50;;;30.80;68.70;;;;;;5052108;28;20479;-79
2023/05/21 10:40:12;;;;;;;22.10;20.80;;;30.80;67.40;;;;;;5051967;28;20635;-79
2023/05/21 10:43:13;;;;;;;22.17;20.90;;;30.10;69.10;;;;;;5051888;28;20455;-78
2023/05/21 10:45:53;;;;;;;21.63;20.43;;;29.30;71.90;;;;;;5052014;28;20817;-78
2023/05/21 10:48:35;;;;;;;20.43;19.43;;;29.60;71.10;;;;;;5052155;28;20505;-77
2023/05/21 10:51:18;;;;;;;20.83;19.73;;;30.20;70.30;;;;;;5052056;28;20505;-78
2023/05/21 10:54:03;;;;;;;21.80;20.57;;;30.40;69.00;;;;;;5052412;28;20476;-78
2023/05/21 10:56:39;;;;;;;20.40;19.40;;;30.90;67.90;;;;;;5052686;28;20444;-77
2023/05/21 10:59:20;;;;;;;20.53;19.50;;;30.60;68.50;;;;;;5051922;28;21046;-78
2023/05/21 11:01:49;;;;;;;21.10;19.93;;;31.00;68.00;;;;;;5052003;28;20452;-78
2023/05/21 11:04:16;;;;;;;20.20;19.07;;;31.40;67.50;;;;;;5052159;28;20552;-78
2023/05/21 11:06:48;;;;;;;20.13;19.13;;;30.50;67.70;;;;;;5052097;28;20451;-78
2023/05/21 11:09:15;;;;;;;20.13;19.03;;;31.00;67.70;;;;;;5051978;28;20485;-78
2023/05/21 11:11:44;;;;;;;19.93;18.83;;;31.30;68.00;;;;;;5051816;28;20458;-78
2023/05/21 11:14:37;;;;;;;20.50;19.40;;;30.70;69.20;;;;;;5051671;28;20456;-78
2023/05/21 11:17:11;;;;;;;21.47;20.37;;;30.30;69.20;;;;;;5051355;28;20473;-79
2023/05/21 11:19:39;;;;;;;21.17;20.07;;;29.30;71.60;;;;;;5051313;28;20479;-78
2023/05/21 11:22:21;;;;;;;21.20;20.00;;;29.30;73.00;;;;;;5050431;28;20457;-78
2023/05/21 11:24:48;;;;;;;21.37;20.17;;;29.50;73.70;;;;;;5051324;28;20475;-77
2023/05/21 11:27:31;;;;;;;20.90;19.80;;;29.70;73.50;;;;;;5051813;28;20459;-78
2023/05/21 11:29:57;;;;;;;21.37;20.30;;;29.70;73.20;;;;;;5051782;28;20452;-76
2023/05/21 11:32:24;;;;;;;21.50;20.30;;;29.90;72.90;;;;;;5051716;28;20463;-76
2023/05/21 11:34:51;;;;;;;20.00;18.77;;;29.80;72.80;;;;;;5051490;28;20452;-77
2023/05/21 11:37:33;;;;;;;20.13;19.13;;;30.10;72.60;;;;;;5051343;28;20491;-77
2023/05/21 11:40:21;;;;;;;21.50;20.30;;;30.30;70.60;;;;;;5051809;28;20494;-77
2023/05/21 11:42:52;;;;;;;21.50;20.30;;;30.80;70.20;;;;;;5051230;28;20448;-77
2023/05/21 11:45:20;;;;;;;22.03;20.90;;;31.60;68.60;;;;;;5050911;28;20521;-78
2023/05/21 11:47:47;;;;;;;21.77;20.50;;;31.10;68.40;;;;;;5051217;28;20934;-77
2023/05/21 11:50:15;;;;;;;20.80;19.50;;;31.30;68.50;;;;;;5051456;28;20529;-77
2023/05/21 11:52:44;;;;;;;20.10;19.10;;;31.50;67.20;;;;;;5051438;28;20448;-78
2023/05/21 11:55:11;;;;;;;18.67;17.63;;;31.50;65.30;;;;;;5051416;28;20934;-78
2023/05/21 11:57:41;;;;;;;20.00;18.90;;;31.00;63.50;;;;;;5050988;28;20553;-77
2023/05/21 12:00:15;;;;;;;19.17;17.97;;;30.70;65.50;;;;;;5050597;28;20460;-77
2023/05/21 12:02:46;;;;;;;20.13;18.80;;;30.60;64.10;;;;;;5050477;28;20448;-77
2023/05/21 12:05:12;;;;;;;19.53;18.53;;;30.70;63.70;;;;;;5050145;28;20954;-78
2023/05/21 12:07:39;;;;;;;19.17;18.17;;;30.90;62.90;;;;;;5049779;28;20467;-77
2023/05/21 12:10:08;;;;;;;19.40;18.40;;;31.40;61.90;;;;;;5049834;28;20444;-77
2023/05/21 12:12:35;;;;;;;19.47;18.50;;;31.30;61.70;;;;;;5050022;28;20972;-78
2023/05/21 12:15:03;;;;;;;18.70;17.80;;;31.60;60.10;;;;;;5044847;28;20468;-78
2023/05/21 12:17:31;;;;;;;17.53;16.70;;;31.50;57.50;;;;;;5049943;28;20761;-78
2023/05/21 12:20:00;;;;;;;18.70;17.50;;;31.10;57.20;;;;;;5049681;28;20543;-79
2023/05/21 12:22:28;;;;;;;16.90;16.20;;;30.40;58.30;;;;;;5049582;28;20541;-79
2023/05/21 12:24:56;;;;;;;16.43;15.70;;;29.90;58.50;;;;;;5049846;28;20452;-78
2023/05/21 12:27:27;;;;;;;17.10;16.10;;;29.50;58.00;;;;;;5049716;28;20510;-77
2023/05/21 12:29:54;;;;;;;16.80;15.90;;;29.50;59.60;;;;;;5049585;28;20656;-78
2023/05/21 12:32:21;;;;;;;17.30;16.40;;;29.30;60.50;;;;;;5049790;28;20448;-77
2023/05/21 12:34:49;;;;;;;17.73;16.67;;;29.40;60.30;;;;;;5048333;28;20448;-77
2023/05/21 12:37:20;;;;;;;16.90;16.03;;;29.70;59.00;;;;;;5049625;28;20452;-77
2023/05/21 12:39:48;;;;;;;16.93;16.03;;;29.60;59.40;;;;;;5049683;28;20440;-79
2023/05/21 12:42:16;;;;;;;17.37;16.57;;;29.80;58.90;;;;;;5049261;28;20950;-78
2023/05/21 12:44:47;;;;;;;16.80;16.00;;;29.80;59.60;;;;;;5049541;28;20482;-79
2023/05/21 12:47:14;;;;;;;18.33;17.43;;;29.60;59.80;;;;;;5049075;28;20472;-77
2023/05/21 12:49:43;;;;;;;17.47;16.57;;;29.50;61.10;;;;;;5049146;28;20444;-77
2023/05/21 12:52:11;;;;;;;18.50;17.60;;;29.80;61.20;;;;;;5049096;28;20944;-77
2023/05/21 12:54:39;;;;;;;18.90;17.90;;;29.90;60.00;;;;;;5048979;28;20455;-77
2023/05/21 12:57:07;;;;;;;18.50;17.60;;;30.30;59.80;;;;;;5048953;28;20486;-77
2023/05/21 12:59:47;;;;;;;17.20;16.40;;;30.70;59.70;;;;;;5048828;28;20488;-77
2023/05/21 13:02:15;;;;;;;18.67;17.67;;;31.20;59.10;;;;;;5048841;28;20459;-77
2023/05/21 13:04:42;;;;;;;19.83;18.83;;;31.10;58.00;;;;;;5049203;28;20484;-77
2023/05/21 13:07:09;;;;;;;17.60;16.50;;;30.80;58.60;;;;;;5049022;28;20459;-77
2023/05/21 13:09:36;;;;;;;18.77;17.80;;;30.80;59.00;;;;;;5048882;28;21000;-77
2023/05/21 13:12:02;;;;;;;17.83;16.93;;;31.40;58.60;;;;;;5048673;28;20459;-82
2023/05/21 13:14:29;;;;;;;17.83;16.83;;;30.90;59.40;;;;;;5048563;28;20478;-77
2023/05/21 13:16:57;;;;;;;18.50;17.40;;;31.10;59.20;;;;;;5048517;28;20448;-77
2023/05/21 13:19:24;;;;;;;18.10;17.10;;;31.50;57.20;;;;;;5048476;28;20480;-77
2023/05/21 13:21:51;;;;;;;17.83;16.93;;;31.40;56.90;;;;;;5048625;28;20787;-77
2023/05/21 13:24:17;;;;;;;18.23;17.33;;;30.70;57.60;;;;;;5048847;28;20440;-76
2023/05/21 13:26:44;;;;;;;19.10;18.17;;;30.40;58.70;;;;;;5048827;28;20451;-74
2023/05/21 13:29:13;;;;;;;17.70;16.70;;;30.60;59.40;;;;;;5049143;28;20539;-82
2023/05/21 13:31:40;;;;;;;17.43;16.57;;;31.30;59.00;;;;;;5048686;28;20448;-76
2023/05/21 13:34:08;;;;;;;17.50;16.70;;;31.80;58.60;;;;;;5048750;28;20452;-77
2023/05/21 13:36:35;;;;;;;19.40;18.30;;;31.80;58.80;;;;;;5048646;28;20475;-77
2023/05/21 13:39:02;;;;;;;19.13;18.23;;;32.50;58.20;;;;;;5048540;28;20550;-78
2023/05/21 13:41:28;;;;;;;19.37;18.13;;;32.00;57.80;;;;;;5048795;28;20439;-77
2023/05/21 13:43:55;;;;;;;19.20;18.30;;;32.40;57.90;;;;;;5048748;28;20468;-78
2023/05/21 13:46:22;;;;;;;20.17;19.17;;;32.70;57.70;;;;;;5048159;28;20593;-77
2023/05/21 13:48:49;;;;;;;19.67;18.77;;;32.70;57.20;;;;;;5048563;28;20805;-78
2023/05/21 13:51:17;;;;;;;18.23;17.17;;;32.40;57.10;;;;;;5048767;28;20527;-78
2023/05/21 13:53:43;;;;;;;20.20;19.20;;;32.10;57.90;;;;;;5048797;28;20463;-77
2023/05/21 13:56:10;;;;;;;19.77;18.87;;;32.30;57.90;;;;;;5048481;28;20448;-76
2023/05/21 13:58:39;;;;;;;19.40;18.50;;;32.70;57.20;;;;;;5048443;28;20484;-76
2023/05/21 14:01:06;;;;;;;19.13;18.13;;;32.90;57.30;;;;;;5048208;28;20773;-76
2023/05/21 14:03:33;;;;;;;18.90;18.00;;;33.50;57.00;;;;;;5048586;28;20486;-77
2023/05/21 14:05:59;;;;;;;19.43;18.30;;;33.70;56.90;;;;;;5048844;28;20448;-77
2023/05/21 14:08:28;;;;;;;20.63;19.63;;;33.80;55.30;;;;;;5048959;28;20458;-77
2023/05/21 14:10:56;;;;;;;19.70;18.80;;;34.20;54.20;;;;;;5048885;28;20452;-77
2023/05/21 14:13:23;;;;;;;20.10;19.10;;;34.00;53.50;;;;;;5048663;28;20551;-77
2023/05/21 14:15:49;;;;;;;18.77;17.87;;;33.70;53.80;;;;;;5048793;28;21133;-77
2023/05/21 14:18:16;;;;;;;19.10;18.20;;;33.50;55.10;;;;;;5048774;28;20484;-77
2023/05/21 14:20:43;;;;;;;18.93;17.77;;;33.50;56.10;;;;;;5048794;28;20451;-78
2023/05/21 14:23:10;;;;;;;18.57;17.67;;;32.70;56.10;;;;;;5048380;28;20448;-77
2023/05/21 14:25:38;;;;;;;19.83;18.37;;;31.10;55.70;;;;;;5048153;28;20444;-77
2023/05/21 14:28:05;;;;;;;18.87;17.87;;;30.40;58.90;;;;;;5048280;28;20444;-77
2023/05/21 14:30:32;;;;;;;18.93;17.87;;;29.60;61.00;;;;;;5048570;28;20490;-77
2023/05/21 14:32:58;;;;;;;16.50;15.80;;;29.20;60.60;;;;;;5048710;28;20444;-76
2023/05/21 14:35:25;;;;;;;17.00;16.20;;;29.00;59.20;;;;;;5048548;28;20452;-76
2023/05/21 14:37:53;;;;;;;16.73;15.93;;;28.90;58.60;;;;;;5048409;28;20454;-76
2023/05/21 14:40:19;;;;;;;15.80;15.00;;;28.60;58.40;;;;;;5048138;28;21010;-76
2023/05/21 14:42:47;;;;;;;16.87;16.17;;;28.50;56.60;;;;;;5048309;28;20448;-76
2023/05/21 14:45:14;;;;;;;17.30;16.40;;;28.40;56.20;;;;;;5048392;28;20483;-76
2023/05/21 14:47:41;;;;;;;17.90;17.00;;;28.30;57.10;;;;;;5048567;28;20444;-76